0F4 weather

Loup City Municipal Airport
Loup City, Nebraska, United States

Public forecast

Using degrees Fahrenheit for public forecast. Weather courtesy of forecast.io.

Closest aviation weather report (METAR) to Loup City Municipal Airport

Closest report is Evelyn Sharp Field, 20.1 nm (37.3 km) N. Retrieved 2019/10/17 06:53 UTC (50 minutes ago):

KODX 170653Z AUTO 00000KT 10SM CLR 02/M01 A2991 RMK AO2 SLP140 T00171011

Closest aviation forecast (TAF) to Loup City Municipal Airport

Closest forecast is Kearney Regional Airport, 33.8 nm (62.7 km) S. Retrieved 2019/10/17 06:18 UTC (1 hour ago):

TAF KEAR 170615Z 1706/1806 14004KT P6SM SKC FM171700 17010KT P6SM SKC FM171900 16013G19KT P6SM FEW250 FM180200 15012KT P6SM SCT250